createdAt,value
2016-09-19T00:00:12.440Z,92.4
2016-09-19T00:01:12.444Z,93.16
2016-09-19T00:02:12.471Z,93.16
2016-09-19T00:03:12.457Z,92.68
2016-09-19T00:04:12.453Z,93.45
2016-09-19T00:05:12.442Z,93.83
2016-09-19T00:06:12.461Z,93.54
2016-09-19T00:07:12.445Z,93.45
2016-09-19T00:08:12.459Z,93.35
2016-09-19T00:09:12.464Z,93.93
2016-09-19T00:10:12.474Z,94.5
2016-09-19T00:11:12.455Z,93.93
2016-09-19T00:12:12.457Z,94.4
2016-09-19T00:13:12.479Z,94.69
2016-09-19T00:14:12.458Z,94.6
2016-09-19T00:15:12.463Z,94.4
2016-09-19T00:16:12.473Z,95.27
2016-09-19T00:17:12.483Z,94.98
2016-09-19T00:18:12.500Z,95.27
2016-09-19T00:19:12.476Z,95.17
2016-09-19T00:20:12.482Z,95.36
2016-09-19T00:21:12.479Z,95.46
2016-09-19T00:22:12.483Z,95.27
2016-09-19T00:23:12.475Z,96.03
2016-09-19T00:24:12.471Z,95.56
2016-09-19T00:25:12.461Z,96.22
2016-09-19T00:26:12.495Z,96.03
2016-09-19T00:27:12.467Z,96.51
2016-09-19T00:28:12.474Z,96.42
2016-09-19T00:29:12.480Z,97.09
2016-09-19T00:30:12.506Z,97.09
2016-09-19T00:31:12.467Z,96.99
2016-09-19T00:32:12.488Z,97.47
2016-09-19T00:33:12.512Z,97.28
2016-09-19T00:34:12.485Z,97.47
2016-09-19T00:35:12.480Z,96.94
2016-09-19T00:36:12.528Z,96.89
2016-09-19T00:37:12.521Z,97.09
2016-09-19T00:38:12.547Z,97.18
2016-09-19T00:39:12.490Z,97.47
2016-09-19T00:40:12.484Z,98.14
2016-09-19T00:41:12.566Z,98.05
2016-09-19T00:42:12.539Z,97.66
2016-09-19T00:43:12.539Z,98.24
2016-09-19T00:44:12.569Z,97.66
2016-09-19T00:45:12.559Z,98.05
2016-09-19T00:46:12.537Z,98.52
2016-09-19T00:47:12.518Z,98.57
2016-09-19T00:48:12.513Z,98.43
2016-09-19T00:49:12.493Z,98.57
2016-09-19T00:50:12.500Z,98.71
2016-09-19T00:51:12.505Z,98.71
2016-09-19T00:52:12.509Z,98.66
2016-09-19T00:53:12.493Z,98.52
2016-09-19T00:54:12.506Z,99.1
2016-09-19T00:55:12.537Z,99.05
2016-09-19T00:56:12.524Z,98.81
2016-09-19T00:57:12.517Z,98.95
2016-09-19T00:58:12.506Z,99.67
2016-09-19T00:59:12.497Z,99.38
2016-09-19T01:00:12.516Z,99.67
2016-09-19T01:01:12.512Z,99.62
2016-09-19T01:02:12.521Z,99.24
2016-09-19T01:03:12.512Z,99.43
2016-09-19T01:04:12.522Z,99.62
2016-09-19T01:05:12.533Z,99.43
2016-09-19T01:06:12.512Z,99.81
2016-09-19T01:07:12.517Z,99.96
2016-09-19T01:08:12.537Z,99.99
2016-09-19T01:09:12.548Z,99.91
2016-09-19T01:10:12.537Z,99.91
2016-09-19T01:11:12.516Z,99.99
2016-09-19T01:12:12.529Z,99.99
2016-09-19T01:13:12.519Z,99.99
2016-09-19T01:14:12.519Z,99.99
2016-09-19T01:15:12.565Z,99.99
2016-09-19T01:16:12.544Z,99.99
2016-09-19T01:17:12.522Z,99.99
2016-09-19T01:18:12.541Z,99.99
2016-09-19T01:19:12.519Z,99.99
2016-09-19T01:20:12.517Z,99.99
2016-09-19T01:21:12.532Z,99.99
2016-09-19T01:22:12.550Z,99.99
2016-09-19T01:23:12.542Z,99.99
2016-09-19T01:24:12.547Z,99.99
2016-09-19T01:25:12.548Z,99.99
2016-09-19T01:26:12.540Z,99.99
2016-09-19T01:27:12.560Z,99.99
2016-09-19T01:28:12.551Z,99.99
2016-09-19T01:29:12.526Z,99.99
2016-09-19T01:30:12.562Z,99.99
2016-09-19T01:31:12.537Z,99.99
2016-09-19T01:32:12.533Z,99.99
2016-09-19T01:33:12.535Z,99.99
2016-09-19T01:34:12.542Z,99.99
2016-09-19T01:35:12.536Z,99.99
2016-09-19T01:36:12.550Z,99.99
2016-09-19T01:37:12.578Z,99.99
2016-09-19T01:38:12.540Z,99.99
2016-09-19T01:39:12.606Z,99.99
2016-09-19T01:40:12.538Z,99.99
2016-09-19T01:41:12.547Z,99.99
2016-09-19T01:42:12.538Z,99.99
2016-09-19T01:43:12.572Z,99.99
2016-09-19T01:44:12.568Z,99.99
2016-09-19T01:45:12.543Z,99.99
2016-09-19T01:46:12.534Z,99.99
2016-09-19T01:47:12.555Z,99.99
2016-09-19T01:48:12.557Z,99.99
2016-09-19T01:49:12.548Z,99.99
2016-09-19T01:50:12.528Z,99.99
2016-09-19T01:51:12.570Z,99.99
2016-09-19T01:52:12.545Z,99.99
2016-09-19T01:53:12.550Z,99.99
2016-09-19T01:54:12.558Z,99.99
2016-09-19T01:55:12.554Z,99.99
2016-09-19T01:56:12.556Z,99.99
2016-09-19T01:57:12.587Z,99.99
2016-09-19T01:58:12.554Z,99.99
2016-09-19T01:59:12.560Z,99.99
2016-09-19T02:00:12.577Z,99.99
2016-09-19T02:01:12.585Z,99.99
2016-09-19T02:02:12.576Z,99.99
2016-09-19T02:03:12.565Z,99.99
2016-09-19T02:04:12.579Z,99.99
2016-09-19T02:05:12.587Z,99.99
2016-09-19T02:06:12.561Z,99.99
2016-09-19T02:07:12.579Z,99.99
2016-09-19T02:08:12.593Z,99.99
2016-09-19T02:09:12.571Z,99.99
2016-09-19T02:10:12.579Z,99.99
2016-09-19T02:11:12.568Z,99.99
2016-09-19T02:12:12.563Z,99.99
2016-09-19T02:13:12.590Z,99.99
2016-09-19T02:14:12.575Z,99.99
2016-09-19T02:15:12.582Z,99.99
2016-09-19T02:16:12.572Z,99.99
2016-09-19T02:17:12.565Z,99.99
2016-09-19T02:18:12.559Z,99.99
2016-09-19T02:19:12.580Z,99.99
2016-09-19T02:20:12.616Z,99.99
2016-09-19T02:21:12.582Z,99.99
2016-09-19T02:22:12.585Z,99.99
2016-09-19T02:23:12.577Z,99.99
2016-09-19T02:24:12.583Z,99.99
2016-09-19T02:25:12.578Z,99.99
2016-09-19T02:26:12.567Z,99.99
2016-09-19T02:27:12.584Z,99.99
2016-09-19T02:28:12.602Z,99.99
2016-09-19T02:29:12.608Z,99.99
2016-09-19T02:30:12.593Z,99.99
2016-09-19T02:31:12.572Z,99.99
2016-09-19T02:32:12.589Z,99.99
2016-09-19T02:33:12.599Z,99.99
2016-09-19T02:34:12.589Z,99.99
2016-09-19T02:35:12.596Z,99.99
2016-09-19T02:36:12.589Z,99.99
2016-09-19T02:37:12.618Z,99.99
2016-09-19T02:38:12.603Z,99.99
2016-09-19T02:39:12.601Z,99.99
2016-09-19T02:40:12.604Z,99.99
2016-09-19T02:41:12.585Z,99.99
2016-09-19T02:42:12.584Z,99.99
2016-09-19T02:43:12.603Z,99.99
2016-09-19T02:44:12.586Z,99.99
2016-09-19T02:45:12.598Z,99.99
2016-09-19T02:46:12.588Z,99.99
2016-09-19T02:47:12.603Z,99.99
2016-09-19T02:48:12.603Z,99.99
2016-09-19T02:49:12.604Z,99.99
2016-09-19T02:50:12.599Z,99.99
2016-09-19T02:51:12.596Z,99.99
2016-09-19T02:52:12.608Z,99.99
2016-09-19T02:53:12.591Z,99.99
2016-09-19T02:54:12.605Z,99.99
2016-09-19T02:55:12.602Z,99.99
2016-09-19T02:56:12.646Z,99.99
2016-09-19T02:57:12.614Z,99.99
2016-09-19T02:58:12.616Z,99.99
2016-09-19T02:59:12.602Z,99.99
2016-09-19T03:00:12.612Z,99.99
2016-09-19T03:01:12.614Z,99.99
2016-09-19T03:02:12.630Z,99.99
2016-09-19T03:03:12.623Z,99.99
2016-09-19T03:04:12.598Z,99.99
2016-09-19T03:05:12.617Z,99.99
2016-09-19T03:06:12.599Z,99.99
2016-09-19T03:07:12.635Z,99.99
2016-09-19T03:08:12.612Z,99.99
2016-09-19T03:09:12.608Z,99.99
2016-09-19T03:10:12.609Z,99.99
2016-09-19T03:11:12.610Z,99.99
2016-09-19T03:12:12.617Z,99.99
2016-09-19T03:13:12.619Z,99.99
2016-09-19T03:14:12.611Z,99.99
2016-09-19T03:15:12.607Z,99.99
2016-09-19T03:16:12.637Z,99.99
2016-09-19T03:17:12.618Z,99.99
2016-09-19T03:18:12.650Z,99.99
2016-09-19T03:19:12.630Z,99.99
2016-09-19T03:20:12.638Z,99.99
2016-09-19T03:21:12.628Z,99.99
2016-09-19T03:22:12.635Z,99.99
2016-09-19T03:23:12.633Z,99.99
2016-09-19T03:24:12.617Z,99.99
2016-09-19T03:25:12.640Z,99.99
2016-09-19T03:26:12.647Z,99.99
2016-09-19T03:27:12.651Z,99.99
2016-09-19T03:28:12.646Z,99.99
2016-09-19T03:29:12.650Z,99.99
2016-09-19T03:30:12.655Z,99.99
2016-09-19T03:31:12.639Z,99.99
2016-09-19T03:32:12.635Z,99.99
2016-09-19T03:33:12.646Z,99.99
2016-09-19T03:34:12.654Z,99.99
2016-09-19T03:35:12.630Z,99.99
2016-09-19T03:36:12.665Z,99.99
2016-09-19T03:37:12.630Z,99.99
2016-09-19T03:38:12.644Z,99.99
2016-09-19T03:39:12.656Z,99.99
2016-09-19T03:40:12.676Z,99.99
2016-09-19T03:41:12.639Z,99.99
2016-09-19T03:42:12.631Z,99.99
2016-09-19T03:43:12.656Z,99.99
2016-09-19T03:44:12.637Z,99.99
2016-09-19T03:45:12.641Z,99.99
2016-09-19T03:46:12.634Z,99.99
2016-09-19T03:47:12.656Z,99.99
2016-09-19T03:48:12.671Z,99.99
2016-09-19T03:49:12.679Z,99.99
2016-09-19T03:50:12.648Z,99.99
2016-09-19T03:51:12.645Z,99.99
2016-09-19T03:52:12.668Z,99.99
2016-09-19T03:53:12.663Z,99.99
2016-09-19T03:54:12.662Z,99.99
2016-09-19T03:55:12.676Z,99.99
2016-09-19T03:56:12.659Z,99.99
2016-09-19T03:57:12.665Z,99.99
2016-09-19T03:58:12.648Z,99.99
2016-09-19T03:59:12.669Z,99.99
2016-09-19T04:00:12.655Z,99.99
2016-09-19T04:01:12.647Z,99.99
2016-09-19T04:02:12.668Z,99.99
2016-09-19T04:03:12.662Z,99.99
2016-09-19T04:04:12.651Z,99.99
2016-09-19T04:05:12.679Z,99.99
2016-09-19T04:06:12.682Z,99.99
2016-09-19T04:07:12.669Z,99.99
2016-09-19T04:08:12.678Z,99.99
2016-09-19T04:09:13.133Z,99.99
2016-09-19T04:10:12.666Z,99.99
2016-09-19T04:11:12.660Z,99.99
2016-09-19T04:12:12.672Z,99.99
2016-09-19T04:13:12.674Z,99.99
2016-09-19T04:14:12.658Z,99.99
2016-09-19T04:15:13.095Z,99.99
2016-09-19T04:16:15.130Z,99.99
2016-09-19T04:17:13.943Z,99.99
2016-09-19T04:18:18.136Z,99.99
2016-09-19T04:19:12.704Z,99.99
2016-09-19T04:20:15.258Z,99.99
2016-09-19T04:21:17.626Z,99.99
2016-09-19T04:22:17.655Z,99.99
2016-09-19T04:23:17.215Z,99.99
2016-09-19T04:24:17.988Z,99.99
2016-09-19T04:25:17.012Z,99.99
2016-09-19T04:26:18.343Z,99.99
2016-09-19T04:27:18.240Z,99.99
2016-09-19T04:28:18.358Z,99.99
2016-09-19T04:29:17.826Z,99.99
2016-09-19T04:30:17.554Z,99.99
2016-09-19T04:31:18.089Z,99.99
2016-09-19T04:32:18.500Z,99.99
2016-09-19T04:33:18.024Z,99.99
2016-09-19T04:34:18.278Z,99.99
2016-09-19T04:35:17.981Z,99.99
2016-09-19T04:36:17.022Z,99.99
2016-09-19T04:37:18.125Z,99.99
2016-09-19T04:38:17.366Z,99.99
2016-09-19T04:39:17.468Z,99.99
2016-09-19T04:40:17.886Z,99.99
2016-09-19T04:41:17.878Z,99.99
2016-09-19T04:42:16.870Z,99.99
2016-09-19T04:43:12.695Z,99.99
2016-09-19T04:44:12.710Z,99.99
2016-09-19T04:45:12.700Z,99.99
2016-09-19T04:46:12.700Z,99.99
2016-09-19T04:47:12.726Z,99.99
2016-09-19T04:48:12.719Z,99.99
2016-09-19T04:49:12.719Z,99.99
2016-09-19T04:50:12.710Z,99.99
2016-09-19T04:51:12.720Z,99.99
2016-09-19T04:52:12.736Z,99.99
2016-09-19T04:53:12.727Z,99.99
2016-09-19T04:54:12.735Z,99.99
2016-09-19T04:55:12.751Z,99.99
2016-09-19T04:56:12.895Z,99.99
2016-09-19T04:57:12.744Z,99.99
2016-09-19T04:58:12.733Z,99.99
2016-09-19T04:59:12.755Z,99.99
2016-09-19T05:00:12.726Z,99.99
2016-09-19T05:01:12.743Z,99.99
2016-09-19T05:02:12.720Z,99.99
2016-09-19T05:03:12.722Z,99.99
2016-09-19T05:04:12.740Z,99.99
2016-09-19T05:05:12.729Z,99.99
2016-09-19T05:06:12.742Z,99.99
2016-09-19T05:07:12.725Z,99.99
2016-09-19T05:08:12.765Z,99.99
2016-09-19T05:09:12.737Z,99.99
2016-09-19T05:10:12.729Z,99.99
2016-09-19T05:11:12.887Z,99.99
2016-09-19T05:12:12.752Z,99.99
2016-09-19T05:13:12.735Z,99.99
2016-09-19T05:14:12.742Z,99.99
2016-09-19T05:15:12.755Z,99.99
2016-09-19T05:16:12.742Z,99.99
2016-09-19T05:17:12.764Z,99.99
2016-09-19T05:18:12.747Z,99.99
2016-09-19T05:19:12.731Z,99.99
2016-09-19T05:20:12.748Z,99.99
2016-09-19T05:21:12.753Z,99.99
2016-09-19T05:22:12.749Z,99.99
2016-09-19T05:23:12.754Z,99.99
2016-09-19T05:24:13.130Z,99.99
2016-09-19T05:25:12.748Z,99.99
2016-09-19T05:26:12.741Z,99.99
2016-09-19T05:27:12.732Z,99.99
2016-09-19T05:28:12.724Z,99.99
2016-09-19T05:29:12.729Z,99.99
2016-09-19T05:30:12.784Z,99.99
2016-09-19T05:31:12.729Z,99.99
2016-09-19T05:32:12.764Z,99.99
2016-09-19T05:33:12.764Z,99.99
2016-09-19T05:34:12.763Z,99.99
2016-09-19T05:35:12.742Z,99.99
2016-09-19T05:36:12.794Z,99.99
2016-09-19T05:37:12.741Z,99.99
2016-09-19T05:38:12.761Z,99.99
2016-09-19T05:39:12.759Z,99.99
2016-09-19T05:40:12.766Z,99.99
2016-09-19T05:41:12.772Z,99.99
2016-09-19T05:42:12.755Z,99.99
2016-09-19T05:43:12.756Z,99.99
2016-09-19T05:44:12.765Z,99.99
2016-09-19T05:45:12.765Z,99.99
2016-09-19T05:46:12.771Z,99.99
2016-09-19T05:47:12.783Z,99.99
2016-09-19T05:48:12.769Z,99.99
2016-09-19T05:49:12.798Z,99.99
2016-09-19T05:50:12.771Z,99.99
2016-09-19T05:51:12.750Z,99.99
2016-09-19T05:52:12.758Z,99.99
2016-09-19T05:53:12.745Z,99.99
2016-09-19T05:54:12.773Z,99.99
2016-09-19T05:55:12.758Z,99.99
2016-09-19T05:56:12.755Z,99.99
2016-09-19T05:57:12.773Z,99.99
2016-09-19T05:58:12.770Z,99.99
2016-09-19T05:59:12.767Z,99.99
2016-09-19T06:00:12.795Z,99.99
2016-09-19T06:01:12.788Z,99.99
2016-09-19T06:02:12.765Z,99.99
2016-09-19T06:03:12.770Z,99.99
2016-09-19T06:04:12.777Z,99.99
2016-09-19T06:05:12.761Z,99.99
2016-09-19T06:06:12.783Z,99.99
2016-09-19T06:07:12.819Z,99.99
2016-09-19T06:08:12.787Z,99.99
2016-09-19T06:09:12.793Z,99.99
2016-09-19T06:10:12.769Z,99.99
2016-09-19T06:11:12.761Z,99.99
2016-09-19T06:12:12.792Z,99.99
2016-09-19T06:13:12.805Z,99.99
2016-09-19T06:14:12.847Z,99.99
2016-09-19T06:15:12.836Z,99.99
2016-09-19T06:16:12.802Z,99.99
2016-09-19T06:17:12.826Z,99.99
2016-09-19T06:18:12.835Z,99.99
2016-09-19T06:19:12.819Z,99.99
2016-09-19T06:20:12.814Z,99.99
2016-09-19T06:21:12.802Z,99.99
2016-09-19T06:22:12.791Z,99.99
2016-09-19T06:23:12.815Z,99.99
2016-09-19T06:24:12.811Z,99.99
2016-09-19T06:25:12.832Z,99.67
2016-09-19T06:26:12.806Z,99.99
2016-09-19T06:27:12.797Z,99.99
2016-09-19T06:28:12.791Z,99.99
2016-09-19T06:29:12.793Z,99.99
2016-09-19T06:30:12.787Z,99.99
2016-09-19T06:31:12.793Z,99.99
2016-09-19T06:32:12.800Z,99.99
2016-09-19T06:33:12.797Z,99.99
2016-09-19T06:34:12.797Z,99.99
2016-09-19T06:35:12.792Z,99.99
2016-09-19T06:36:12.792Z,99.99
2016-09-19T06:37:12.795Z,99.99
2016-09-19T06:38:12.822Z,99.99
2016-09-19T06:39:12.827Z,99.99
2016-09-19T06:40:12.821Z,99.99
2016-09-19T06:41:12.811Z,99.99
2016-09-19T06:42:12.808Z,99.99
2016-09-19T06:43:12.812Z,99.99
2016-09-19T06:44:12.817Z,99.99
2016-09-19T06:45:12.820Z,99.99
2016-09-19T06:46:12.812Z,99.99
2016-09-19T06:47:12.813Z,99.99
2016-09-19T06:48:12.804Z,99.99
2016-09-19T06:49:12.801Z,99.99
2016-09-19T06:50:12.811Z,99.99
2016-09-19T06:51:12.829Z,99.99
2016-09-19T06:52:12.808Z,99.99
2016-09-19T06:53:12.851Z,99.99
2016-09-19T06:54:12.824Z,99.99
2016-09-19T06:55:12.802Z,99.99
2016-09-19T06:56:12.834Z,99.99
2016-09-19T06:57:12.843Z,99.99
2016-09-19T06:58:12.829Z,99.99
2016-09-19T06:59:12.801Z,99.99
2016-09-19T07:00:12.832Z,99.99
2016-09-19T07:01:12.834Z,99.99
2016-09-19T07:02:12.840Z,99.38
2016-09-19T07:03:12.821Z,99.76
2016-09-19T07:04:12.846Z,99.19
2016-09-19T07:05:12.824Z,98.14
2016-09-19T07:06:12.815Z,99.1
2016-09-19T07:07:12.835Z,99.86
2016-09-19T07:08:12.841Z,99.67
2016-09-19T07:09:12.841Z,99.57
2016-09-19T07:10:12.810Z,99.29
2016-09-19T07:11:12.820Z,98.81
2016-09-19T07:12:12.828Z,98.9
2016-09-19T07:13:12.833Z,97.75
2016-09-19T07:14:12.821Z,96.61
2016-09-19T07:15:12.833Z,96.13
2016-09-19T07:16:12.836Z,95.46
2016-09-19T07:17:12.829Z,95.27
2016-09-19T07:18:12.833Z,95.46
2016-09-19T07:19:12.842Z,94.31
2016-09-19T07:20:12.859Z,94.6
2016-09-19T07:21:12.832Z,95.07
2016-09-19T07:22:12.841Z,95.65
2016-09-19T07:23:12.840Z,93.74
2016-09-19T07:24:12.904Z,93.45
2016-09-19T07:25:12.874Z,92.69
2016-09-19T07:26:12.904Z,92.69
2016-09-19T07:27:14.942Z,93.98
2016-09-19T07:28:24.720Z,93.88
2016-09-19T07:29:12.881Z,94.55
2016-09-19T07:30:12.910Z,95.07
2016-09-19T07:31:12.897Z,94.55
2016-09-19T07:32:12.872Z,94.65
2016-09-19T07:33:12.915Z,93.93
2016-09-19T07:34:12.899Z,94.45
2016-09-19T07:35:12.890Z,94.84
2016-09-19T07:36:12.922Z,94.93
2016-09-19T07:37:12.903Z,94.84
2016-09-19T07:38:12.893Z,95.61
2016-09-19T07:39:12.875Z,94.36
2016-09-19T07:40:12.912Z,94.74
2016-09-19T07:41:12.874Z,95.03
2016-09-19T07:42:12.912Z,93.88
2016-09-19T07:43:12.892Z,93.3
2016-09-19T07:44:12.922Z,91.97
2016-09-19T07:45:12.876Z,89.52
2016-09-19T07:46:12.910Z,85.74
2016-09-19T07:47:12.898Z,82.71
2016-09-19T07:48:12.904Z,79.44
2016-09-19T07:49:13.006Z,76.64
2016-09-19T07:50:12.886Z,73.79
2016-09-19T07:51:12.924Z,71.61
2016-09-19T07:52:12.865Z,72.83
2016-09-19T07:53:12.871Z,73.27
2016-09-19T07:54:12.893Z,74.71
2016-09-19T07:55:12.856Z,76.12
2016-09-19T07:56:12.940Z,76.84
2016-09-19T07:57:12.854Z,78.19
2016-09-19T07:58:12.870Z,78.96
2016-09-19T07:59:12.859Z,79.82
2016-09-19T08:00:12.883Z,79.97
2016-09-19T08:01:12.868Z,80.16
2016-09-19T08:02:12.913Z,80.35
2016-09-19T08:03:12.870Z,80.07
2016-09-19T08:04:12.888Z,79.97
2016-09-19T08:05:12.883Z,80.93
2016-09-19T08:06:12.912Z,79.39
2016-09-19T08:07:12.879Z,80.35
2016-09-19T08:08:12.886Z,81.12
2016-09-19T08:09:12.886Z,78.82
2016-09-19T08:10:12.908Z,79.11
2016-09-19T08:11:12.901Z,80.55
2016-09-19T08:12:12.885Z,79.59
2016-09-19T08:13:12.873Z,79.24
2016-09-19T08:14:12.880Z,78.96
2016-09-19T08:15:12.895Z,78.86
2016-09-19T08:16:12.896Z,77.33
2016-09-19T08:17:12.898Z,78.77
2016-09-19T08:18:12.876Z,79.14
2016-09-19T08:19:12.897Z,78.96
2016-09-19T08:20:12.892Z,78.28
2016-09-19T08:21:12.914Z,77.65
2016-09-19T08:22:12.894Z,77.26
2016-09-19T08:23:12.919Z,76.21
2016-09-19T08:24:12.891Z,76.4
2016-09-19T08:25:12.913Z,75.82
2016-09-19T08:26:12.888Z,75.54
2016-09-19T08:27:12.882Z,75.54
2016-09-19T08:28:12.929Z,75.92
2016-09-19T08:29:12.942Z,76.82
2016-09-19T08:30:12.901Z,77.01
2016-09-19T08:31:12.905Z,77.21
2016-09-19T08:32:12.915Z,77.31
2016-09-19T08:33:12.914Z,76.64
2016-09-19T08:34:12.902Z,75.48
2016-09-19T08:35:12.895Z,72.79
2016-09-19T08:36:12.911Z,72.41
2016-09-19T08:37:12.905Z,72.99
2016-09-19T08:38:12.895Z,72.22
2016-09-19T08:39:12.911Z,73.27
2016-09-19T08:40:12.927Z,72.6
2016-09-19T08:41:12.926Z,73.18
2016-09-19T08:42:12.912Z,72.92
2016-09-19T08:43:12.938Z,71.19
2016-09-19T08:44:12.904Z,71.67
2016-09-19T08:45:12.901Z,71.39
2016-09-19T08:46:12.981Z,70.14
2016-09-19T08:47:12.929Z,70.75
2016-09-19T08:48:12.922Z,69.79
2016-09-19T08:49:12.915Z,70.46
2016-09-19T08:50:13.151Z,68.92
2016-09-19T08:51:13.134Z,67.38
2016-09-19T08:52:12.922Z,68.54
2016-09-19T08:53:13.037Z,68.35
2016-09-19T08:54:12.931Z,68.35
2016-09-19T08:55:13.100Z,69.69
2016-09-19T08:56:13.086Z,68.73
2016-09-19T08:57:12.928Z,69.12
2016-09-19T08:58:13.078Z,67.86
2016-09-19T08:59:12.935Z,67.77
2016-09-19T09:00:12.927Z,69.79
2016-09-19T09:01:12.960Z,67.48
2016-09-19T09:02:12.939Z,67
2016-09-19T09:03:12.931Z,66.2
2016-09-19T09:04:12.953Z,67.74
2016-09-19T09:05:12.916Z,66.97
2016-09-19T09:06:12.955Z,67.64
2016-09-19T09:07:12.943Z,67.93
2016-09-19T09:08:12.965Z,70.33
2016-09-19T09:09:12.957Z,70.23
2016-09-19T09:10:12.940Z,71.29
2016-09-19T09:11:12.956Z,70.9
2016-09-19T09:12:12.956Z,68.41
2016-09-19T09:13:12.943Z,68.51
2016-09-19T09:14:12.948Z,68.6
2016-09-19T09:15:12.963Z,69.31
2016-09-19T09:16:13.014Z,69.69
2016-09-19T09:17:12.989Z,69.31
2016-09-19T09:18:12.989Z,69.66
2016-09-19T09:19:12.965Z,69.56
2016-09-19T09:20:12.957Z,69.27
2016-09-19T09:21:12.969Z,68.89
2016-09-19T09:22:12.975Z,69.37
2016-09-19T09:23:12.974Z,69.85
2016-09-19T09:24:12.954Z,71.39
2016-09-19T09:25:12.960Z,70.43
2016-09-19T09:26:12.937Z,69.62
2016-09-19T09:27:12.964Z,70.29
2016-09-19T09:28:12.984Z,71.55
2016-09-19T09:29:12.961Z,72.12
2016-09-19T09:30:12.956Z,71.73
2016-09-19T09:31:12.977Z,71.55
2016-09-19T09:32:12.993Z,71.93
2016-09-19T09:33:12.955Z,71.45
2016-09-19T09:34:12.977Z,70.68
2016-09-19T09:35:12.953Z,71.64
2016-09-19T09:36:12.978Z,71.55
2016-09-19T09:37:12.958Z,71.55
2016-09-19T09:38:12.967Z,70.87
2016-09-19T09:39:12.974Z,71.55
2016-09-19T09:40:12.965Z,70.87
2016-09-19T09:41:12.986Z,71.31
2016-09-19T09:42:12.974Z,71.61
2016-09-19T09:43:12.977Z,73.72
2016-09-19T09:44:12.994Z,75.06
2016-09-19T09:45:12.990Z,72.56
2016-09-19T09:46:12.984Z,72.47
2016-09-19T09:47:12.974Z,74.77
2016-09-19T09:48:12.982Z,74.1
2016-09-19T09:49:12.989Z,72.85
2016-09-19T09:50:12.981Z,73.14
2016-09-19T09:51:12.996Z,74.58
2016-09-19T09:52:12.974Z,73.46
2016-09-19T09:53:12.995Z,73.27
2016-09-19T09:54:12.996Z,73.18
2016-09-19T09:55:12.991Z,74.23
2016-09-19T09:56:13.009Z,75.38
2016-09-19T09:57:13.003Z,73.85
2016-09-19T09:58:12.985Z,73.27
2016-09-19T09:59:12.978Z,74.33
2016-09-19T10:00:12.987Z,73.37
2016-09-19T10:01:12.995Z,72.22
2016-09-19T10:02:13.025Z,71.45
2016-09-19T10:03:13.021Z,71.45
2016-09-19T10:04:13.014Z,70.49
2016-09-19T10:05:12.987Z,71.35
2016-09-19T10:06:13.009Z,70.49
2016-09-19T10:07:13.007Z,70.78
2016-09-19T10:08:12.979Z,69.05
2016-09-19T10:09:12.991Z,67.51
2016-09-19T10:10:12.998Z,68.18
2016-09-19T10:11:12.994Z,69.14
2016-09-19T10:12:12.991Z,70.68
2016-09-19T10:13:13.022Z,70.33
2016-09-19T10:14:13.011Z,69.66
2016-09-19T10:15:13.017Z,69.18
2016-09-19T10:16:13.031Z,68.02
2016-09-19T10:17:13.036Z,67.35
2016-09-19T10:18:13.014Z,69.66
2016-09-19T10:19:13.013Z,70.43
2016-09-19T10:20:12.998Z,69.27
2016-09-19T10:21:13.023Z,67.45
2016-09-19T10:22:13.007Z,67.68
2016-09-19T10:23:13.006Z,65.37
2016-09-19T10:24:13.012Z,66.04
2016-09-19T10:25:13.031Z,66.91
2016-09-19T10:26:13.010Z,67.1
2016-09-19T10:27:13.007Z,67.19
2016-09-19T10:28:13.007Z,67.03
2016-09-19T10:29:13.010Z,66.94
2016-09-19T10:30:13.018Z,66.55
2016-09-19T10:31:13.023Z,66.65
2016-09-19T10:32:13.014Z,65.88
2016-09-19T10:33:13.028Z,65.3
2016-09-19T10:34:13.005Z,64.28
2016-09-19T10:35:13.023Z,62.83
2016-09-19T10:36:13.016Z,62.64
2016-09-19T10:37:13.039Z,62.54
2016-09-19T10:38:13.044Z,62.38
2016-09-19T10:39:13.020Z,61.71
2016-09-19T10:40:13.029Z,61.13
2016-09-19T10:41:13.017Z,61.71
2016-09-19T10:42:13.017Z,63.25
2016-09-19T10:43:13.077Z,63.34
2016-09-19T10:44:13.027Z,63.06
2016-09-19T10:45:13.051Z,63.64
2016-09-19T10:46:13.016Z,62.77
2016-09-19T10:47:13.024Z,61.52
2016-09-19T10:48:13.024Z,62.6
2016-09-19T10:49:13.041Z,63.09
2016-09-19T10:50:13.037Z,62.32
2016-09-19T10:51:13.026Z,62.03
2016-09-19T10:52:13.035Z,61.83
2016-09-19T10:53:13.044Z,61.93
2016-09-19T10:54:13.062Z,61.65
2016-09-19T10:55:13.065Z,61.55
2016-09-19T10:56:13.045Z,61.35
2016-09-19T10:57:13.052Z,61.42
2016-09-19T10:58:13.055Z,61.35
2016-09-19T10:59:13.063Z,61.42
2016-09-19T11:00:13.102Z,62.41
2016-09-19T11:01:13.040Z,62.19
2016-09-19T11:02:13.070Z,63.06
2016-09-19T11:04:13.049Z,63.15
2016-09-19T11:05:13.065Z,63.82
2016-09-19T11:06:13.082Z,65.08
2016-09-19T11:07:13.076Z,63.99
2016-09-19T11:08:13.062Z,63.51
2016-09-19T11:09:13.057Z,63.99
2016-09-19T11:10:13.067Z,65.33
2016-09-19T11:11:13.054Z,64.86
2016-09-19T11:12:13.057Z,65.2
2016-09-19T11:13:13.065Z,65.05
2016-09-19T11:14:13.047Z,65.24
2016-09-19T11:15:13.060Z,65.24
2016-09-19T11:16:13.082Z,66.39
2016-09-19T11:17:13.079Z,65.62
2016-09-19T11:18:13.086Z,65.72
2016-09-19T11:19:13.077Z,65.62
2016-09-19T11:20:13.063Z,65.14
2016-09-19T11:21:13.077Z,65.24
2016-09-19T11:22:13.056Z,65.33
2016-09-19T11:23:13.060Z,65.24
2016-09-19T11:24:13.084Z,65.66
2016-09-19T11:25:13.066Z,64.59
2016-09-19T11:26:13.081Z,64.69
2016-09-19T11:27:13.066Z,64.02
2016-09-19T11:28:13.075Z,64.12
2016-09-19T11:29:13.062Z,64.21
2016-09-19T11:30:13.064Z,63.06
2016-09-19T11:31:13.075Z,62.67
2016-09-19T11:32:13.071Z,63.44
2016-09-19T11:33:13.076Z,62.77
2016-09-19T11:34:13.081Z,62.48
2016-09-19T11:35:13.063Z,62.77
2016-09-19T11:36:13.083Z,62.57
2016-09-19T11:37:13.073Z,62.77
2016-09-19T11:38:13.088Z,63.54
2016-09-19T11:39:13.077Z,63.09
2016-09-19T11:40:13.082Z,63.34
2016-09-19T11:41:13.092Z,62.8
2016-09-19T11:42:13.100Z,62.9
2016-09-19T11:43:13.072Z,62.96
2016-09-19T11:44:13.088Z,63.44
2016-09-19T11:45:13.105Z,63.44
2016-09-19T11:46:13.094Z,62.38
2016-09-19T11:47:13.083Z,62.38
2016-09-19T11:48:13.097Z,62.29
2016-09-19T11:49:13.095Z,62.87
2016-09-19T11:50:13.097Z,62.32
2016-09-19T11:51:13.123Z,63.28
2016-09-19T11:52:13.101Z,63.06
2016-09-19T11:53:13.105Z,62.29
2016-09-19T11:54:13.105Z,62.57
2016-09-19T11:55:13.091Z,63.44
2016-09-19T11:56:13.100Z,64.69
2016-09-19T11:57:13.097Z,63.15
2016-09-19T11:58:13.101Z,63.44
2016-09-19T11:59:13.102Z,63.34
2016-09-19T12:00:13.115Z,62.77
2016-09-19T12:01:13.100Z,61.9
2016-09-19T12:02:13.105Z,62.09
2016-09-19T12:03:13.118Z,62.12
2016-09-19T12:04:13.104Z,62.32
2016-09-19T12:05:13.125Z,61.74
2016-09-19T12:06:13.103Z,61.93
2016-09-19T12:07:13.110Z,62.32
2016-09-19T12:08:13.114Z,60.71
2016-09-19T12:09:13.139Z,61.48
2016-09-19T12:10:13.114Z,60.77
2016-09-19T12:11:13.134Z,61.68
2016-09-19T12:12:13.237Z,61.68
2016-09-19T12:13:13.142Z,61.68
2016-09-19T12:14:13.142Z,60.42
2016-09-19T12:15:13.747Z,60.42
2016-09-19T12:16:13.174Z,60.13
2016-09-19T12:17:13.138Z,61.29
2016-09-19T12:18:13.164Z,60.13
2016-09-19T12:19:13.127Z,59.81
2016-09-19T12:20:13.110Z,60.58
2016-09-19T12:21:13.147Z,59.65
2016-09-19T12:22:13.170Z,60.03
2016-09-19T12:23:13.124Z,60.13
2016-09-19T12:24:13.163Z,60.52
2016-09-19T12:25:13.181Z,60.9
2016-09-19T12:26:13.205Z,59.45
2016-09-19T12:27:13.177Z,60.16
2016-09-19T12:28:13.238Z,59.97
2016-09-19T12:29:13.168Z,60.45
2016-09-19T12:30:13.184Z,58.42
2016-09-19T12:31:13.153Z,58.72
2016-09-19T12:32:13.157Z,59.3
2016-09-19T12:33:13.206Z,58.62
2016-09-19T12:34:13.130Z,58.33
2016-09-19T12:35:13.171Z,58.62
2016-09-19T12:36:13.124Z,59.1
2016-09-19T12:37:13.145Z,58.72
2016-09-19T12:38:13.146Z,59
2016-09-19T12:39:13.166Z,58.33
2016-09-19T12:40:13.175Z,58.91
2016-09-19T12:41:13.172Z,60.16
2016-09-19T12:42:13.185Z,59.48
2016-09-19T12:43:13.170Z,59.78
2016-09-19T12:44:13.203Z,58.42
2016-09-19T12:45:13.253Z,57.46
2016-09-19T12:46:13.246Z,56.21
2016-09-19T12:47:13.179Z,56.3
2016-09-19T12:48:13.203Z,56.49
2016-09-19T12:49:13.173Z,56.59
2016-09-19T12:50:13.131Z,56.59
2016-09-19T12:51:13.212Z,56.88
2016-09-19T12:52:13.160Z,57.65
2016-09-19T12:53:13.232Z,57.27
2016-09-19T12:54:13.162Z,57.07